Jean-Luc Ménard

Recruteur en chef - Valenciennes
21 Nov 2027
Dimanche
Processus

Personnalité

Adaptabilité (11) Ambition (14) Controverse (6) Loyauté (11) Pression (1) Professionnalisme (17) Sportivité (10) Tempérament (6)

Profil

Style d'entraînement Démocratique
Diplôme Continental Pro
Détermination 6
Gestion des joueurs 12
Motivation 8
Discipline 10
Satisfaction professionnelle
90%
Fatigue
0%
Rôle Recruteur en chef
Salaire 27.7K p/s
Contrat 14.03.2028

Performance

Comportement Bon
Efficacité de l'entraînement
32%
Développement des joueurs
20%
Prévention des blessures
35%
Mise en place tactique
35%

Événements récents

A participé à une réunion de recrutement maintenant
A recommandé une cible de transfert maintenant
A participé à une réunion de recrutement 7j
A recommandé une cible de transfert 7j
A recommandé une cible de transfert 7j
A recommandé une cible de transfert 7j
A recommandé une cible de transfert 14j
A recommandé une cible de transfert 14j

Suivi en cours

61
Joueur Club Statut Capacité Confiance Observé Dernière observation Dernier vote
Marius Louër Angers SCO Rapport prêt 102 / 109 62% 1 02.08.2027 -
Kyllian Antonio RC Lens Rapport prêt 111 / 125 62% 1 19.07.2027 -
Seedy Jatta Austin FC Négociation 118 / 122 67% 1 01.06.2027 -
Zian Flemming Ipswich Town Actif 133 / 139 40% 1 31.05.2027 -
Derensili Sanches Fernandes Huddersfield Town Actif 127 / 119 40% 1 31.05.2027 -
Milan van Ewijk Coventry City Actif 141 / 129 40% 1 26.01.2027 -
Sylvester Jasper Standard Liege Actif 124 / 119 40% 3 01.01.2027 -
Chris Lokesa Waasland-Beveren Actif 120 / 129 40% 2 01.01.2027 -
Sampson Dweh Mallorca Négociation 133 / 134 66% 1 01.01.2027 -
Jefry Zapata Aldosivi Actif 118 / 118 66% 1 01.01.2027 Approuver
Taiga Hata Sint-Truiden Actif 123 / 124 40% 6 30.12.2026 -
Luke McNally Bristol City Actif 134 / 133 40% 1 30.12.2026 -
Jakob Kiilerich Zulte Waregem Actif 110 / 109 40% 1 30.12.2026 -
Timothy Fellaini KV Oostende Actif 136 / 134 40% 2 26.12.2026 -
Théodore Lefèvre Tours Actif 139 / 132 40% 1 26.12.2026 -
Mardochée Nzita Charleroi Actif 124 / 107 40% 4 24.12.2026 -
Oswin Appollis Orlando Pirates Actif 136 / 120 40% 1 24.12.2026 -
Ilyes Najim Waasland-Beveren Actif 122 / 120 40% 3 23.12.2026 -
Marley Aké Zulte Waregem Actif 120 / 107 40% 3 23.12.2026 -
Dylan Ourega Westerlo Actif 119 / 119 40% 1 22.12.2026 -
Christophe Roger Chamois Niortais Actif 133 / 123 40% 2 21.12.2026 -
Thomas Claes Zulte Waregem Actif 112 / 125 40% 1 19.12.2026 -
Robert-Jan Vanwesemael Sint-Truiden Actif 125 / 121 40% 1 19.12.2026 -
Jacob Greaves Ipswich Town Actif 137 / 140 40% 1 18.12.2026 -
Pape Diong Westerlo Actif 108 / 119 40% 1 18.12.2026 -
Antoine Colassin Charleroi Actif 112 / 119 40% 2 16.12.2026 -
Sorriso Famalicao Actif 126 / 127 40% 1 16.12.2026 -
Bongani Zungu Ajax Cape Town Actif 123 / 115 40% 1 15.12.2026 -
Tanner Tessmann Angers SCO Actif 148 / 149 40% 2 13.12.2026 -
Aiham Ousou Charleroi Actif 119 / 132 40% 1 13.12.2026 -
Ilias Sebaoui Sint-Truiden Actif 119 / 129 40% 4 11.12.2026 -
Malick Mbaye Zulte Waregem Actif 108 / 124 40% 2 07.12.2026 -
Ibrahim Karamoko Standard Liege Actif 113 / 122 40% 6 05.12.2026 -
Dara O'Shea Ipswich Town Actif 137 / 136 40% 1 05.12.2026 -
Tristan Degreef Anderlecht Actif 119 / 121 40% 3 02.12.2026 -
Max Johnston Derby County Actif 121 / 127 40% 1 02.12.2026 -
Quentin Merlin Stade Rennais Actif 131 / 125 40% 1 02.12.2026 -
Mike Eerdhuijzen KV Mechelen Actif 133 / 127 40% 1 01.12.2026 -
Anton Tanghe Zulte Waregem Actif 106 / 117 40% 1 01.12.2026 -
Timothy Tielemans Mouscron Actif 106 / 127 40% 1 29.11.2026 -
Maghnes Akliouche Paris Saint-Germain Actif 146 / 141 40% 1 28.11.2026 -
Kyriani Sabbe Club Brugge Actif 114 / 120 40% 1 23.11.2026 -
Léandre Kuavita Waasland-Beveren Actif 122 / 131 40% 1 22.11.2026 -
Fredrik Hammar KV Mechelen Actif 109 / 122 40% 1 21.11.2026 -
Marcelo Allende Mamelodi Sundowns Actif 128 / 137 40% 1 20.11.2026 -
Jens Petter Hauge Bodo/Glimt Actif 147 / 148 40% 1 17.11.2026 -
Enrique Lofolomo Zulte Waregem Actif 105 / 106 40% 1 15.11.2026 -
Carlos Jimenez Veracruz Actif 117 / 129 40% 1 15.11.2026 -
Luca Koleosho Paris FC Actif 138 / 124 40% 2 13.11.2026 -
Sieben Dewaele Waasland-Beveren Actif 118 / 109 40% 1 13.11.2026 -
Maksim Kireev KV Mechelen Actif 126 / 124 40% 2 09.11.2026 -
Hugo Siquet Club Brugge Actif 127 / 122 40% 1 09.11.2026 -
Alejandro Gómez Tijuana Actif 123 / 115 40% 1 08.11.2026 -
Max Bird Birmingham Actif 141 / 130 40% 1 08.11.2026 -
Hugo Vetlesen Club Brugge Actif 138 / 127 40% 1 07.11.2026 -
Tommy St. Jago KV Mechelen Actif 124 / 127 40% 1 04.11.2026 -
David Amegnaglo Westerlo Actif 110 / 107 40% 1 02.11.2026 -
Dan Sinaté Angers SCO Actif 108 / 106 62% 1 31.08.2026 Approuver
Aymeris Ligeon Angers SCO Actif 73 / 94 62% 1 24.08.2026 Approuver
Félix Lemaréchal Club Brugge Actif 125 / 130 40% 1 01.08.2026 -
Aimé Omgba KAA Gent Actif 113 / 120 40% 1 01.08.2026 -